createdAt,value
2023-05-16T00:00:49.242Z,118
2023-05-16T00:02:37.036Z,115
2023-05-16T00:03:44.033Z,120
2023-05-16T00:04:50.670Z,115
2023-05-16T00:05:57.487Z,117
2023-05-16T00:07:04.206Z,115
2023-05-16T00:08:11.042Z,106
2023-05-16T00:09:17.905Z,118
2023-05-16T00:10:24.932Z,116
2023-05-16T00:11:31.506Z,115
2023-05-16T00:12:38.275Z,107
2023-05-16T00:13:45.077Z,117
2023-05-16T00:14:51.778Z,110
2023-05-16T00:15:58.559Z,115
2023-05-16T00:17:05.554Z,110
2023-05-16T00:18:12.191Z,110
2023-05-16T00:19:19.133Z,109
2023-05-16T00:20:25.826Z,102
2023-05-16T00:21:32.467Z,109
2023-05-16T00:22:39.327Z,109
2023-05-16T00:23:54.882Z,103
2023-05-16T00:25:01.642Z,111
2023-05-16T00:26:15.567Z,100
2023-05-16T00:27:22.400Z,105
2023-05-16T00:28:29.248Z,107
2023-05-16T00:29:48.777Z,101
2023-05-16T00:30:55.522Z,111
2023-05-16T00:32:02.384Z,111
2023-05-16T00:33:09.314Z,106
2023-05-16T00:34:16.058Z,104
2023-05-16T00:35:22.826Z,104
2023-05-16T00:36:29.728Z,100
2023-05-16T00:37:36.501Z,107
2023-05-16T00:38:43.325Z,102
2023-05-16T00:39:50.112Z,97
2023-05-16T00:40:56.882Z,103
2023-05-16T00:42:03.734Z,103
2023-05-16T00:43:10.521Z,92
2023-05-16T00:44:17.263Z,100
2023-05-16T00:45:24.006Z,103
2023-05-16T00:46:31.114Z,99
2023-05-16T00:47:37.927Z,104
2023-05-16T00:48:44.548Z,96
2023-05-16T00:49:51.452Z,95
2023-05-16T00:50:58.313Z,99
2023-05-16T00:52:05.003Z,96
2023-05-16T00:53:11.902Z,97
2023-05-16T00:54:18.617Z,96
2023-05-16T00:55:25.398Z,96
2023-05-16T00:56:32.157Z,95
2023-05-16T00:57:39.088Z,100
2023-05-16T00:58:45.880Z,101
2023-05-16T00:59:52.592Z,102
2023-05-16T01:00:59.427Z,95
2023-05-16T01:02:06.212Z,100
2023-05-16T01:03:13.153Z,104
2023-05-16T01:04:20.000Z,92
2023-05-16T01:05:27.076Z,97
2023-05-16T01:06:33.719Z,96
2023-05-16T01:07:40.622Z,87
2023-05-16T01:08:47.606Z,96
2023-05-16T01:09:54.462Z,85
2023-05-16T01:11:01.314Z,89
2023-05-16T01:12:33.913Z,95
2023-05-16T01:13:50.875Z,98
2023-05-16T01:15:07.807Z,90
2023-05-16T01:16:17.647Z,93
2023-05-16T01:17:24.684Z,85
2023-05-16T01:18:41.537Z,101
2023-05-16T01:19:58.615Z,86
2023-05-16T01:21:10.498Z,89
2023-05-16T01:22:20.058Z,92
2023-05-16T01:23:34.681Z,92
2023-05-16T01:24:43.961Z,83
2023-05-16T01:26:00.946Z,79
2023-05-16T01:27:17.897Z,93
2023-05-16T01:28:24.724Z,85
2023-05-16T01:29:31.631Z,92
2023-05-16T01:30:38.549Z,81
2023-05-16T01:31:45.382Z,90
2023-05-16T01:32:52.366Z,96
2023-05-16T01:33:59.130Z,86
2023-05-16T01:35:06.026Z,86
2023-05-16T01:36:12.794Z,86
2023-05-16T01:37:24.821Z,78
2023-05-16T01:38:36.765Z,87
2023-05-16T01:39:48.651Z,94
2023-05-16T01:40:58.353Z,78
2023-05-16T01:42:08.098Z,94
2023-05-16T01:43:17.561Z,98
2023-05-16T01:44:26.980Z,76
2023-05-16T01:45:38.841Z,89
2023-05-16T01:46:45.903Z,82
2023-05-16T01:47:52.789Z,76
2023-05-16T01:48:59.568Z,98
2023-05-16T01:50:16.472Z,72
2023-05-16T01:51:23.289Z,66
2023-05-16T01:52:30.125Z,76
2023-05-16T01:53:47.001Z,82
2023-05-16T01:54:53.904Z,97
2023-05-16T01:56:18.977Z,79
2023-05-16T01:57:25.828Z,75
2023-05-16T01:58:32.716Z,90
2023-05-16T01:59:39.522Z,76
2023-05-16T02:00:46.367Z,81
2023-05-16T02:01:53.129Z,76
2023-05-16T02:03:03.072Z,79
2023-05-16T02:04:09.825Z,75
2023-05-16T02:05:16.578Z,75
2023-05-16T02:06:23.377Z,86
2023-05-16T02:07:30.139Z,72
2023-05-16T02:08:37.034Z,74
2023-05-16T02:09:43.818Z,69
2023-05-16T02:10:50.571Z,75
2023-05-16T02:11:57.437Z,74
2023-05-16T02:13:04.308Z,76
2023-05-16T02:14:11.178Z,84
2023-05-16T02:15:17.984Z,71
2023-05-16T02:16:24.830Z,74
2023-05-16T02:17:31.702Z,68
2023-05-16T02:18:38.506Z,60
2023-05-16T02:19:45.387Z,77
2023-05-16T02:20:52.255Z,66
2023-05-16T02:21:59.039Z,69
2023-05-16T02:23:05.958Z,66
2023-05-16T02:24:12.800Z,62
2023-05-16T02:25:19.717Z,65
2023-05-16T02:26:26.401Z,66
2023-05-16T02:27:33.283Z,58
2023-05-16T02:28:40.120Z,53
2023-05-16T02:29:46.991Z,64
2023-05-16T02:30:53.785Z,58
2023-05-16T02:32:03.646Z,75
2023-05-16T02:33:10.610Z,59
2023-05-16T02:34:17.340Z,53
2023-05-16T02:35:24.319Z,58
2023-05-16T02:36:31.037Z,60
2023-05-16T02:37:37.842Z,69
2023-05-16T02:38:44.669Z,72
2023-05-16T02:39:51.580Z,70
2023-05-16T02:40:58.441Z,54
2023-05-16T02:42:05.381Z,54
2023-05-16T02:43:12.310Z,55
2023-05-16T02:44:19.213Z,61
2023-05-16T02:45:26.171Z,52
2023-05-16T02:46:33.130Z,60
2023-05-16T02:47:40.082Z,57
2023-05-16T02:48:46.892Z,59
2023-05-16T02:49:53.741Z,62
2023-05-16T02:51:00.632Z,58
2023-05-16T02:52:07.462Z,53
2023-05-16T02:53:14.347Z,70
2023-05-16T02:54:21.121Z,55
2023-05-16T02:55:28.030Z,59
2023-05-16T02:56:34.858Z,51
2023-05-16T02:57:41.771Z,60
2023-05-16T02:58:48.672Z,58
2023-05-16T02:59:55.484Z,68
2023-05-16T03:01:02.345Z,67
2023-05-16T03:02:09.412Z,70
2023-05-16T03:03:16.428Z,71
2023-05-16T03:04:23.220Z,77
2023-05-16T03:05:30.190Z,79
2023-05-16T03:06:36.828Z,86
2023-05-16T03:07:43.688Z,70
2023-05-16T03:08:50.564Z,63
2023-05-16T03:09:57.382Z,88
2023-05-16T03:11:04.329Z,83
2023-05-16T03:12:11.162Z,91
2023-05-16T03:13:17.996Z,77
2023-05-16T03:14:24.907Z,74
2023-05-16T03:15:34.318Z,89
2023-05-16T03:16:41.213Z,98
2023-05-16T03:17:48.075Z,98
2023-05-16T03:18:54.902Z,83
2023-05-16T03:20:01.681Z,101
2023-05-16T03:21:08.828Z,92
2023-05-16T03:22:15.669Z,86
2023-05-16T03:23:22.443Z,93
2023-05-16T03:24:29.202Z,83
2023-05-16T03:25:36.118Z,87
2023-05-16T03:26:42.924Z,96
2023-05-16T03:27:49.678Z,89
2023-05-16T03:28:56.417Z,89
2023-05-16T03:30:03.487Z,87
2023-05-16T03:31:10.756Z,93
2023-05-16T03:32:17.667Z,94
2023-05-16T03:33:24.417Z,81
2023-05-16T03:34:31.219Z,97
2023-05-16T03:35:38.124Z,92
2023-05-16T03:36:45.142Z,88
2023-05-16T03:37:55.115Z,102
2023-05-16T03:39:01.896Z,84
2023-05-16T03:40:08.726Z,90
2023-05-16T03:41:15.647Z,96
2023-05-16T03:42:22.572Z,96
2023-05-16T03:43:29.457Z,112
2023-05-16T03:44:36.250Z,94
2023-05-16T03:45:43.154Z,111
2023-05-16T03:46:50.030Z,90
2023-05-16T03:47:56.910Z,109
2023-05-16T03:49:03.668Z,110
2023-05-16T03:50:10.478Z,113
2023-05-16T03:51:17.293Z,98
2023-05-16T03:52:24.090Z,93
2023-05-16T03:53:30.900Z,91
2023-05-16T03:54:37.784Z,108
2023-05-16T03:55:45.462Z,109
2023-05-16T03:56:51.458Z,93
2023-05-16T03:57:58.404Z,83
2023-05-16T03:59:05.402Z,89
2023-05-16T04:00:12.216Z,89
2023-05-16T04:01:19.230Z,85
2023-05-16T04:02:26.156Z,80
2023-05-16T04:03:33.045Z,87
2023-05-16T04:04:39.762Z,78
2023-05-16T04:05:46.610Z,75
2023-05-16T04:06:53.482Z,79
2023-05-16T04:08:00.285Z,77
2023-05-16T04:09:07.276Z,76
2023-05-16T04:10:14.041Z,84
2023-05-16T04:11:20.899Z,75
2023-05-16T04:12:27.737Z,80
2023-05-16T04:13:34.673Z,93
2023-05-16T04:14:41.442Z,73
2023-05-16T04:15:48.324Z,80
2023-05-16T04:16:55.508Z,75
2023-05-16T04:18:02.322Z,73
2023-05-16T04:19:09.162Z,73
2023-05-16T04:20:15.873Z,69
2023-05-16T04:21:22.742Z,70
2023-05-16T04:22:29.542Z,69
2023-05-16T04:23:36.255Z,73
2023-05-16T04:24:43.093Z,68
2023-05-16T04:25:50.041Z,68
2023-05-16T04:26:56.870Z,63
2023-05-16T04:28:03.769Z,74
2023-05-16T04:29:10.640Z,70
2023-05-16T04:30:17.477Z,68
2023-05-16T04:31:24.444Z,74
2023-05-16T04:32:31.295Z,71
2023-05-16T04:33:38.070Z,75
2023-05-16T04:34:44.880Z,79
2023-05-16T04:35:51.704Z,72
2023-05-16T04:36:58.577Z,73
2023-05-16T04:38:05.351Z,72
2023-05-16T04:39:12.188Z,67
2023-05-16T04:40:19.013Z,66
2023-05-16T04:41:25.973Z,63
2023-05-16T04:42:32.777Z,58
2023-05-16T04:43:39.597Z,66
2023-05-16T04:44:46.368Z,63
2023-05-16T04:45:53.227Z,68
2023-05-16T04:46:59.996Z,61
2023-05-16T04:48:06.880Z,56
2023-05-16T04:49:13.640Z,57
2023-05-16T04:50:20.527Z,61
2023-05-16T04:51:27.418Z,54
2023-05-16T04:52:34.301Z,56
2023-05-16T04:53:41.117Z,49
2023-05-16T04:54:48.009Z,49
2023-05-16T04:55:54.798Z,48
2023-05-16T04:57:01.691Z,51
2023-05-16T04:58:08.734Z,46
2023-05-16T04:59:15.630Z,39
2023-05-16T05:00:22.457Z,43
2023-05-16T05:01:29.321Z,49
2023-05-16T05:02:36.301Z,39
2023-05-16T05:03:43.006Z,41
2023-05-16T05:04:49.862Z,35
2023-05-16T05:06:35.599Z,34
2023-05-16T05:07:43.520Z,26
2023-05-16T05:08:50.372Z,31
2023-05-16T05:09:57.238Z,33
2023-05-16T05:11:04.242Z,27
2023-05-16T05:12:11.193Z,25
2023-05-16T05:13:18.212Z,29
2023-05-16T05:14:25.043Z,25
2023-05-16T05:15:31.812Z,27
2023-05-16T05:16:38.591Z,27
2023-05-16T05:17:45.655Z,27
2023-05-16T05:18:52.590Z,31
2023-05-16T05:20:01.101Z,25
2023-05-16T05:21:06.421Z,28
2023-05-16T05:22:13.275Z,25
2023-05-16T05:23:19.986Z,31
2023-05-16T05:24:26.776Z,28
2023-05-16T05:25:34.861Z,28
2023-05-16T05:26:40.360Z,32
2023-05-16T05:27:48.336Z,31
2023-05-16T05:29:04.323Z,32
2023-05-16T05:30:17.651Z,38
2023-05-16T05:31:24.764Z,43
2023-05-16T05:32:31.561Z,30
2023-05-16T05:33:38.278Z,30
2023-05-16T05:34:45.069Z,35
2023-05-16T05:35:51.894Z,32
2023-05-16T05:36:58.755Z,37
2023-05-16T05:38:05.605Z,31
2023-05-16T05:39:12.426Z,27
2023-05-16T05:40:19.142Z,34
2023-05-16T05:41:25.901Z,35
2023-05-16T05:42:32.708Z,26
2023-05-16T05:43:39.468Z,31
2023-05-16T05:44:46.206Z,33
2023-05-16T05:45:53.060Z,31
2023-05-16T05:47:27.914Z,25
2023-05-16T05:48:34.617Z,32
2023-05-16T05:49:41.398Z,34
2023-05-16T05:50:48.240Z,39
2023-05-16T05:51:55.093Z,28
2023-05-16T05:53:02.003Z,31
2023-05-16T05:54:08.876Z,30
2023-05-16T05:55:15.650Z,25
2023-05-16T05:56:22.417Z,25
2023-05-16T05:57:29.091Z,25
2023-05-16T05:58:35.964Z,26
2023-05-16T05:59:57.368Z,32
2023-05-16T06:01:09.116Z,29
2023-05-16T06:02:15.991Z,27
2023-05-16T06:03:23.760Z,27
2023-05-16T06:04:30.408Z,25
2023-05-16T06:05:37.204Z,26
2023-05-16T06:06:43.984Z,29
2023-05-16T06:07:50.711Z,29
2023-05-16T06:08:57.509Z,25
2023-05-16T06:10:04.882Z,26
2023-05-16T06:11:11.496Z,29
2023-05-16T06:12:18.279Z,27
2023-05-16T06:13:34.725Z,25
2023-05-16T06:14:41.649Z,25
2023-05-16T06:15:48.437Z,32
2023-05-16T06:16:55.350Z,26
2023-05-16T06:18:02.115Z,29
2023-05-16T06:19:09.113Z,26
2023-05-16T06:20:15.886Z,25
2023-05-16T06:21:22.674Z,31
2023-05-16T06:22:29.544Z,25
2023-05-16T06:23:36.267Z,26
2023-05-16T06:24:43.044Z,26
2023-05-16T06:26:23.804Z,26
2023-05-16T06:27:30.536Z,26
2023-05-16T06:28:37.287Z,27
2023-05-16T06:29:43.989Z,35
2023-05-16T06:30:50.783Z,29
2023-05-16T06:31:57.551Z,25
2023-05-16T06:33:04.472Z,25
2023-05-16T06:34:11.389Z,25
2023-05-16T06:35:18.300Z,28
2023-05-16T06:36:25.028Z,30
2023-05-16T06:37:31.820Z,29
2023-05-16T06:38:38.734Z,27
2023-05-16T06:39:45.778Z,29
2023-05-16T06:40:52.557Z,31
2023-05-16T06:41:59.364Z,26
2023-05-16T06:43:09.240Z,33
2023-05-16T06:44:16.049Z,32
2023-05-16T06:45:22.865Z,33
2023-05-16T06:46:27.916Z,33
2023-05-16T06:47:33.028Z,33
2023-05-16T06:48:38.051Z,33
2023-05-16T06:49:43.487Z,33
2023-05-16T06:50:48.610Z,33
2023-05-16T06:51:56.597Z,33
2023-05-16T06:53:02.209Z,33
2023-05-16T06:54:07.234Z,33
2023-05-16T06:55:12.313Z,33
2023-05-16T06:56:17.530Z,33
2023-05-16T06:57:22.508Z,33
2023-05-16T06:58:28.116Z,33
2023-05-16T06:59:33.169Z,33
2023-05-16T07:00:38.215Z,33
2023-05-16T07:01:43.243Z,33
2023-05-16T07:02:50.442Z,33
2023-05-16T07:03:55.456Z,33
2023-05-16T07:05:00.399Z,33
2023-05-16T07:06:05.985Z,33
2023-05-16T07:07:11.288Z,33
2023-05-16T07:08:16.273Z,33
2023-05-16T07:09:21.250Z,33
2023-05-16T07:10:26.237Z,33
2023-05-16T07:11:33.589Z,33
2023-05-16T07:12:38.690Z,33
2023-05-16T07:13:43.738Z,33
2023-05-16T07:14:48.776Z,33
2023-05-16T07:15:54.285Z,33
2023-05-16T07:16:59.383Z,33
2023-05-16T07:18:04.288Z,33
2023-05-16T07:19:09.273Z,33
2023-05-16T07:20:14.198Z,33
2023-05-16T07:21:32.978Z,33
2023-05-16T07:22:44.042Z,33
2023-05-16T07:23:49.065Z,33
2023-05-16T07:24:54.168Z,33
2023-05-16T07:25:59.206Z,33
2023-05-16T07:27:04.706Z,33
2023-05-16T07:28:09.691Z,33
2023-05-16T07:29:14.786Z,33
2023-05-16T07:30:19.764Z,33
2023-05-16T07:31:24.778Z,33
2023-05-16T07:32:30.169Z,33
2023-05-16T07:33:35.196Z,33
2023-05-16T07:34:40.135Z,33
2023-05-16T07:35:45.128Z,33
2023-05-16T07:36:50.365Z,33
2023-05-16T07:38:19.654Z,32
2023-05-16T07:39:26.407Z,36
2023-05-16T07:40:33.236Z,37
2023-05-16T07:41:40.158Z,25
2023-05-16T07:42:47.027Z,33
2023-05-16T07:43:53.771Z,29
2023-05-16T07:45:01.677Z,28
2023-05-16T07:46:08.811Z,35
2023-05-16T07:47:33.756Z,42
2023-05-16T07:48:40.470Z,25
2023-05-16T07:49:47.332Z,41
2023-05-16T07:50:55.699Z,38
2023-05-16T07:52:01.003Z,30
2023-05-16T07:53:07.793Z,25
2023-05-16T07:54:14.654Z,28
2023-05-16T07:55:21.551Z,35
2023-05-16T07:56:28.390Z,48
2023-05-16T07:57:46.019Z,25
2023-05-16T07:58:52.819Z,26
2023-05-16T08:00:04.584Z,32
2023-05-16T08:01:12.000Z,40
2023-05-16T08:02:18.567Z,32
2023-05-16T08:03:25.494Z,37
2023-05-16T08:04:32.228Z,30
2023-05-16T08:05:39.058Z,25
2023-05-16T08:06:47.044Z,53
2023-05-16T08:08:57.249Z,53
2023-05-16T08:10:04.108Z,32
2023-05-16T08:11:11.236Z,27
2023-05-16T08:12:17.917Z,25
2023-05-16T08:13:24.760Z,31
2023-05-16T08:14:31.607Z,32
2023-05-16T08:15:52.185Z,29
2023-05-16T08:16:58.919Z,33
2023-05-16T08:18:20.050Z,28
2023-05-16T08:19:26.062Z,25
2023-05-16T08:20:33.036Z,38
2023-05-16T08:21:39.865Z,31
2023-05-16T08:22:46.632Z,28
2023-05-16T08:23:53.468Z,47
2023-05-16T08:25:00.861Z,27
2023-05-16T08:26:07.217Z,35
2023-05-16T08:27:14.097Z,37
2023-05-16T08:28:20.932Z,32
2023-05-16T08:29:27.711Z,25
2023-05-16T08:30:34.560Z,35
2023-05-16T08:31:41.402Z,29
2023-05-16T08:32:48.179Z,28
2023-05-16T08:33:54.963Z,31
2023-05-16T08:35:01.905Z,34
2023-05-16T08:36:08.955Z,31
2023-05-16T08:37:17.270Z,34
2023-05-16T08:38:22.626Z,32
2023-05-16T08:39:29.458Z,33
2023-05-16T08:40:36.451Z,29
2023-05-16T08:41:53.978Z,25
2023-05-16T08:43:06.676Z,30
2023-05-16T08:44:13.425Z,28
2023-05-16T08:45:20.183Z,28
2023-05-16T08:46:27.022Z,25
2023-05-16T08:47:33.825Z,28
2023-05-16T08:48:40.595Z,27
2023-05-16T08:49:47.430Z,32
2023-05-16T08:50:54.221Z,26
2023-05-16T08:52:01.045Z,43
2023-05-16T08:53:10.017Z,56
2023-05-16T08:54:16.776Z,53
2023-05-16T08:55:23.518Z,39
2023-05-16T08:56:30.546Z,39
2023-05-16T08:57:37.189Z,43
2023-05-16T08:58:44.100Z,44
2023-05-16T08:59:50.812Z,32
2023-05-16T09:00:57.668Z,31
2023-05-16T09:02:05.471Z,30
2023-05-16T09:03:12.343Z,35
2023-05-16T09:04:19.159Z,32
2023-05-16T09:05:26.103Z,33
2023-05-16T09:06:32.819Z,34
2023-05-16T09:07:39.493Z,34
2023-05-16T09:08:52.211Z,30
2023-05-16T09:10:10.856Z,29
2023-05-16T09:11:17.622Z,36
2023-05-16T09:12:24.460Z,34
2023-05-16T09:13:31.234Z,38
2023-05-16T09:14:38.041Z,29
2023-05-16T09:15:44.988Z,40
2023-05-16T09:16:56.673Z,39
2023-05-16T09:18:06.323Z,30
2023-05-16T09:19:13.570Z,32
2023-05-16T09:20:20.519Z,28
2023-05-16T09:21:28.359Z,26
2023-05-16T09:22:35.061Z,38
2023-05-16T09:23:41.784Z,28
2023-05-16T09:24:48.840Z,26
2023-05-16T09:26:03.129Z,34
2023-05-16T09:27:09.863Z,41
2023-05-16T09:28:16.861Z,32
2023-05-16T09:29:23.743Z,33
2023-05-16T09:30:30.329Z,37
2023-05-16T09:31:37.127Z,25
2023-05-16T09:32:43.922Z,25
2023-05-16T09:33:51.849Z,25
2023-05-16T09:35:01.618Z,37
2023-05-16T09:36:08.673Z,29
2023-05-16T09:37:15.524Z,51
2023-05-16T09:38:22.426Z,39
2023-05-16T09:39:29.307Z,35
2023-05-16T09:40:36.142Z,45
2023-05-16T09:41:42.946Z,32
2023-05-16T09:42:49.732Z,43
2023-05-16T09:44:07.097Z,44
2023-05-16T09:45:13.520Z,36
2023-05-16T09:46:20.365Z,31
2023-05-16T09:47:27.084Z,44
2023-05-16T09:48:33.885Z,37
2023-05-16T09:49:40.860Z,42
2023-05-16T09:50:49.796Z,54
2023-05-16T09:51:56.481Z,55
2023-05-16T09:53:04.051Z,50
2023-05-16T09:54:25.490Z,28
2023-05-16T09:55:34.805Z,25
2023-05-16T09:56:41.698Z,39
2023-05-16T09:57:53.526Z,42
2023-05-16T09:59:01.329Z,27
2023-05-16T10:00:08.179Z,27
2023-05-16T10:01:15.014Z,26
2023-05-16T10:02:21.971Z,34
2023-05-16T10:03:28.682Z,27
2023-05-16T10:04:35.496Z,31
2023-05-16T10:05:42.328Z,32
2023-05-16T10:06:49.136Z,28
2023-05-16T10:07:55.910Z,29
2023-05-16T10:09:03.177Z,35
2023-05-16T10:10:09.575Z,27
2023-05-16T10:11:16.239Z,41
2023-05-16T10:12:22.945Z,39
2023-05-16T10:13:29.715Z,43
2023-05-16T10:14:53.890Z,68
2023-05-16T10:16:00.877Z,74
2023-05-16T10:17:10.400Z,34
2023-05-16T10:18:17.333Z,59
2023-05-16T10:19:24.202Z,46
2023-05-16T10:20:30.810Z,32
2023-05-16T10:21:37.522Z,47
2023-05-16T10:22:44.421Z,43
2023-05-16T10:23:51.286Z,46
2023-05-16T10:24:58.098Z,41
2023-05-16T10:26:04.805Z,32
2023-05-16T10:27:11.519Z,28
2023-05-16T10:28:18.392Z,41
2023-05-16T10:29:25.337Z,26
2023-05-16T10:30:32.098Z,34
2023-05-16T10:31:38.990Z,26
2023-05-16T10:32:45.623Z,40
2023-05-16T10:33:52.516Z,50
2023-05-16T10:35:02.482Z,37
2023-05-16T10:36:14.353Z,41
2023-05-16T10:37:57.177Z,49
2023-05-16T10:39:03.961Z,60
2023-05-16T10:40:10.808Z,46
2023-05-16T10:41:18.744Z,39
2023-05-16T10:42:25.490Z,31
2023-05-16T10:43:32.251Z,33
2023-05-16T10:44:39.102Z,31
2023-05-16T10:45:46.095Z,48
2023-05-16T10:46:54.143Z,43
2023-05-16T10:48:30.099Z,37
2023-05-16T10:49:36.857Z,33
2023-05-16T10:50:46.486Z,25
2023-05-16T10:51:53.228Z,41
2023-05-16T10:53:05.298Z,37
2023-05-16T10:54:20.164Z,40
2023-05-16T10:55:27.074Z,40
2023-05-16T10:56:33.733Z,25
2023-05-16T10:57:40.490Z,29
2023-05-16T10:58:47.357Z,38
2023-05-16T10:59:54.227Z,33
2023-05-16T11:01:07.854Z,41
2023-05-16T11:02:23.499Z,46
2023-05-16T11:03:33.242Z,38
2023-05-16T11:04:41.040Z,33
2023-05-16T11:06:03.688Z,30
2023-05-16T11:07:10.602Z,35
2023-05-16T11:08:17.402Z,43
2023-05-16T11:09:24.204Z,29
2023-05-16T11:10:31.016Z,38
2023-05-16T11:11:37.811Z,46
2023-05-16T11:12:52.730Z,42
2023-05-16T11:14:01.566Z,44
2023-05-16T11:15:08.403Z,37
2023-05-16T11:16:25.335Z,45
2023-05-16T11:17:32.148Z,43
2023-05-16T11:18:43.933Z,46
2023-05-16T11:19:53.752Z,51
2023-05-16T11:21:03.092Z,48
2023-05-16T11:22:09.962Z,26
2023-05-16T11:23:16.949Z,34
2023-05-16T11:24:23.749Z,40
2023-05-16T11:25:36.264Z,31
2023-05-16T11:26:43.183Z,37
2023-05-16T11:27:50.032Z,52
2023-05-16T11:28:58.856Z,39
2023-05-16T11:30:05.703Z,27
2023-05-16T11:31:18.836Z,32
2023-05-16T11:32:25.548Z,53
2023-05-16T11:33:32.310Z,42
2023-05-16T11:34:38.974Z,26
2023-05-16T11:36:16.116Z,54
2023-05-16T11:37:18.950Z,48
2023-05-16T11:39:20.286Z,48
2023-05-16T11:40:29.991Z,41
2023-05-16T11:41:36.830Z,42
2023-05-16T11:42:43.501Z,29
2023-05-16T11:43:50.227Z,27
2023-05-16T11:44:56.995Z,28
2023-05-16T11:46:11.492Z,33
2023-05-16T11:47:18.192Z,25
2023-05-16T11:48:35.532Z,25
2023-05-16T11:49:31.932Z,28
2023-05-16T11:50:38.532Z,27
2023-05-16T11:51:45.242Z,29
2023-05-16T11:52:52.188Z,27
2023-05-16T11:53:58.898Z,30
2023-05-16T11:55:07.695Z,40
2023-05-16T11:56:17.217Z,37
2023-05-16T11:57:26.861Z,38
2023-05-16T11:58:33.603Z,38
2023-05-16T11:59:41.373Z,33
2023-05-16T12:00:48.069Z,47
2023-05-16T12:01:54.949Z,32
2023-05-16T12:03:34.001Z,38
2023-05-16T12:04:41.072Z,30
2023-05-16T12:05:50.645Z,26
2023-05-16T12:06:57.421Z,25
2023-05-16T12:08:04.172Z,27
2023-05-16T12:09:10.851Z,46
2023-05-16T12:10:17.669Z,39
2023-05-16T12:11:24.505Z,36
2023-05-16T12:12:31.165Z,36
2023-05-16T12:13:37.911Z,31
2023-05-16T12:14:45.465Z,27
2023-05-16T12:15:52.182Z,32
2023-05-16T12:17:08.857Z,37
2023-05-16T12:18:15.677Z,31
2023-05-16T12:19:22.550Z,25
2023-05-16T12:20:29.536Z,25
2023-05-16T12:21:36.184Z,27
2023-05-16T12:22:42.966Z,34
2023-05-16T12:23:49.760Z,27
2023-05-16T12:24:59.435Z,41
2023-05-16T12:26:16.320Z,37
2023-05-16T12:27:30.856Z,31
2023-05-16T12:28:37.592Z,33
2023-05-16T12:29:44.452Z,35
2023-05-16T12:30:51.217Z,41
2023-05-16T12:31:58.168Z,29
2023-05-16T12:33:06.961Z,25
2023-05-16T12:34:11.858Z,32
2023-05-16T12:35:24.640Z,38
2023-05-16T12:36:34.369Z,29
2023-05-16T12:37:41.092Z,29
2023-05-16T12:38:47.991Z,35
2023-05-16T12:39:54.825Z,53
2023-05-16T12:41:04.701Z,29
2023-05-16T12:42:11.417Z,29
2023-05-16T12:43:18.174Z,37
2023-05-16T12:44:24.941Z,28
2023-05-16T12:45:33.419Z,25
2023-05-16T12:46:38.570Z,46
2023-05-16T12:47:48.114Z,34
2023-05-16T12:48:54.927Z,38
2023-05-16T12:50:04.859Z,43
2023-05-16T12:51:14.507Z,33
2023-05-16T12:52:21.240Z,37
2023-05-16T12:53:27.919Z,36
2023-05-16T12:54:34.702Z,33
2023-05-16T12:55:41.577Z,34
2023-05-16T12:56:48.344Z,30
2023-05-16T12:57:55.222Z,26
2023-05-16T12:59:01.994Z,37
2023-05-16T13:00:08.784Z,39
2023-05-16T13:01:15.831Z,34
2023-05-16T13:02:22.454Z,30
2023-05-16T13:03:29.291Z,36
2023-05-16T13:04:35.967Z,42
2023-05-16T13:06:00.254Z,38
2023-05-16T13:07:07.031Z,39
2023-05-16T13:08:14.021Z,38
2023-05-16T13:09:20.654Z,31
2023-05-16T13:10:27.720Z,27
2023-05-16T13:11:34.144Z,28
2023-05-16T13:12:41.048Z,47
2023-05-16T13:13:47.815Z,41
2023-05-16T13:14:55.010Z,51
2023-05-16T13:16:01.797Z,34
2023-05-16T13:17:48.878Z,30
2023-05-16T13:18:55.800Z,25
2023-05-16T13:20:02.623Z,37
2023-05-16T13:21:12.303Z,32
2023-05-16T13:22:19.015Z,38
2023-05-16T13:23:26.255Z,34
2023-05-16T13:24:32.953Z,29
2023-05-16T13:25:39.690Z,28
2023-05-16T13:26:46.489Z,32
2023-05-16T13:27:53.235Z,44
2023-05-16T13:29:00.118Z,30
2023-05-16T13:30:07.090Z,49
2023-05-16T13:31:13.926Z,49
2023-05-16T13:32:52.997Z,58
2023-05-16T13:33:59.645Z,51
2023-05-16T13:35:06.422Z,42
2023-05-16T13:36:13.326Z,36
2023-05-16T13:37:20.113Z,54
2023-05-16T13:38:29.684Z,74
2023-05-16T13:39:36.533Z,59
2023-05-16T13:40:45.707Z,68
2023-05-16T13:41:52.556Z,67
2023-05-16T13:42:59.293Z,61
2023-05-16T13:44:06.122Z,64
2023-05-16T13:45:14.183Z,51
2023-05-16T13:46:21.252Z,71
2023-05-16T13:47:28.032Z,79
2023-05-16T13:48:34.792Z,78
2023-05-16T13:49:41.656Z,89
2023-05-16T13:50:48.443Z,70
2023-05-16T13:51:55.558Z,69
2023-05-16T13:53:02.309Z,63
2023-05-16T13:54:09.396Z,69
2023-05-16T13:55:15.990Z,90
2023-05-16T13:56:22.956Z,95
2023-05-16T13:57:29.652Z,95
2023-05-16T13:58:40.715Z,107
2023-05-16T14:00:03.893Z,113
2023-05-16T14:00:50.180Z,127
2023-05-16T14:01:56.898Z,130
2023-05-16T14:03:03.646Z,137
2023-05-16T14:04:10.383Z,134
2023-05-16T14:05:17.134Z,139
2023-05-16T14:06:23.982Z,145
2023-05-16T14:07:30.700Z,147
2023-05-16T14:08:37.579Z,155
2023-05-16T14:09:55.818Z,154
2023-05-16T14:11:11.197Z,162
2023-05-16T14:12:26.575Z,166
2023-05-16T14:13:33.882Z,170
2023-05-16T14:14:40.738Z,172
2023-05-16T14:15:50.604Z,179
2023-05-16T14:16:57.311Z,186
2023-05-16T14:18:04.133Z,184
2023-05-16T14:19:32.645Z,192
2023-05-16T14:20:39.211Z,189
2023-05-16T14:21:46.000Z,190
2023-05-16T14:22:52.865Z,197
2023-05-16T14:23:59.698Z,195
2023-05-16T14:25:06.745Z,198
2023-05-16T14:26:13.444Z,198
2023-05-16T14:27:20.268Z,209
2023-05-16T14:28:27.106Z,191
2023-05-16T14:29:39.060Z,197
2023-05-16T14:30:47.949Z,204
2023-05-16T14:31:53.109Z,198
2023-05-16T14:32:59.769Z,203
2023-05-16T14:34:06.506Z,197
2023-05-16T14:35:13.229Z,205
2023-05-16T14:36:20.114Z,205
2023-05-16T14:37:26.934Z,201
2023-05-16T14:38:33.692Z,199
2023-05-16T14:39:46.576Z,202
2023-05-16T14:40:53.464Z,199
2023-05-16T14:42:00.078Z,201
2023-05-16T14:43:06.930Z,200
2023-05-16T14:44:13.772Z,196
2023-05-16T14:45:20.567Z,199
2023-05-16T14:46:27.343Z,198
2023-05-16T14:47:36.912Z,192
2023-05-16T14:48:43.709Z,185
2023-05-16T14:49:50.595Z,185
2023-05-16T14:50:57.250Z,182
2023-05-16T14:52:03.906Z,189
2023-05-16T14:53:10.529Z,185
2023-05-16T14:54:17.347Z,186
2023-05-16T14:55:24.103Z,187
2023-05-16T14:56:30.988Z,186
2023-05-16T14:57:37.557Z,186
2023-05-16T14:58:44.411Z,188
2023-05-16T15:00:03.048Z,191
2023-05-16T15:01:10.269Z,192
2023-05-16T15:02:17.010Z,192
2023-05-16T15:03:23.785Z,187
2023-05-16T15:04:30.440Z,184
2023-05-16T15:05:37.266Z,189
2023-05-16T15:06:43.989Z,197
2023-05-16T15:07:50.766Z,183
2023-05-16T15:08:57.502Z,181
2023-05-16T15:10:04.331Z,183
2023-05-16T15:11:11.351Z,178
2023-05-16T15:12:18.221Z,183
2023-05-16T15:13:24.966Z,181
2023-05-16T15:14:31.773Z,180
2023-05-16T15:15:38.799Z,183
2023-05-16T15:16:45.656Z,183
2023-05-16T15:17:52.312Z,187
2023-05-16T15:18:59.203Z,183
2023-05-16T15:20:06.028Z,183
2023-05-16T15:21:13.005Z,180
2023-05-16T15:22:19.819Z,182
2023-05-16T15:23:26.642Z,181
2023-05-16T15:24:33.500Z,184
2023-05-16T15:25:40.372Z,185
2023-05-16T15:26:47.376Z,186
2023-05-16T15:27:54.262Z,185
2023-05-16T15:29:00.922Z,184
2023-05-16T15:30:07.654Z,189
2023-05-16T15:31:14.699Z,189
2023-05-16T15:32:21.417Z,188
2023-05-16T15:33:28.095Z,183
2023-05-16T15:34:34.885Z,183
2023-05-16T15:35:41.645Z,181
2023-05-16T15:36:48.540Z,178
2023-05-16T15:37:55.316Z,174
2023-05-16T15:39:02.073Z,175
2023-05-16T15:40:08.901Z,170
2023-05-16T15:41:26.817Z,181
2023-05-16T15:42:22.782Z,189
2023-05-16T15:43:29.626Z,191
2023-05-16T15:44:36.342Z,188
2023-05-16T15:45:43.217Z,190
2023-05-16T15:46:50.090Z,184
2023-05-16T15:47:56.946Z,187
2023-05-16T15:49:03.713Z,185
2023-05-16T15:50:10.520Z,184
2023-05-16T15:51:17.338Z,179
2023-05-16T15:52:24.185Z,177
2023-05-16T15:53:31.136Z,174
2023-05-16T15:54:37.794Z,171
2023-05-16T15:55:44.583Z,168
2023-05-16T15:56:51.455Z,171
2023-05-16T15:57:58.362Z,167
2023-05-16T15:59:05.231Z,167
2023-05-16T16:00:23.688Z,171
2023-05-16T16:01:30.482Z,163
2023-05-16T16:02:37.430Z,160
2023-05-16T16:03:44.356Z,165
2023-05-16T16:04:50.816Z,159
2023-05-16T16:05:57.752Z,158